sensor_id;sensor_type;location;lat;lon;timestamp;temperature;humidity
68177;DHT22;56478;50.982;7.032;2023-06-10T00:02:07;21.80;57.44
68177;DHT22;56478;50.982;7.032;2023-06-10T00:04:33;21.83;57.63
68177;DHT22;56478;50.982;7.032;2023-06-10T00:07:02;21.79;59.37
68177;DHT22;56478;50.982;7.032;2023-06-10T00:09:29;21.73;57.31
68177;DHT22;56478;50.982;7.032;2023-06-10T00:11:54;21.82;56.22
68177;DHT22;56478;50.982;7.032;2023-06-10T00:14:20;21.82;57.82
68177;DHT22;56478;50.982;7.032;2023-06-10T00:16:46;21.76;56.93
68177;DHT22;56478;50.982;7.032;2023-06-10T00:19:11;21.65;59.12
68177;DHT22;56478;50.982;7.032;2023-06-10T00:21:39;21.58;59.40
68177;DHT22;56478;50.982;7.032;2023-06-10T00:24:08;21.58;59.56
68177;DHT22;56478;50.982;7.032;2023-06-10T00:26:39;21.42;60.71
68177;DHT22;56478;50.982;7.032;2023-06-10T00:29:06;21.23;60.41
68177;DHT22;56478;50.982;7.032;2023-06-10T00:31:37;21.06;60.71
68177;DHT22;56478;50.982;7.032;2023-06-10T00:34:03;21.00;60.95
68177;DHT22;56478;50.982;7.032;2023-06-10T00:36:29;20.94;61.95
68177;DHT22;56478;50.982;7.032;2023-06-10T00:38:55;20.84;62.10
68177;DHT22;56478;50.982;7.032;2023-06-10T00:41:21;20.82;62.48
68177;DHT22;56478;50.982;7.032;2023-06-10T00:43:46;20.79;62.52
68177;DHT22;56478;50.982;7.032;2023-06-10T00:46:12;20.75;62.68
68177;DHT22;56478;50.982;7.032;2023-06-10T00:48:40;20.68;62.62
68177;DHT22;56478;50.982;7.032;2023-06-10T00:51:06;20.68;62.65
68177;DHT22;56478;50.982;7.032;2023-06-10T00:53:35;20.66;62.90
68177;DHT22;56478;50.982;7.032;2023-06-10T00:56:03;20.61;63.17
68177;DHT22;56478;50.982;7.032;2023-06-10T00:58:28;20.56;63.39
68177;DHT22;56478;50.982;7.032;2023-06-10T01:00:55;20.52;64.06
68177;DHT22;56478;50.982;7.032;2023-06-10T01:03:20;20.45;63.58
68177;DHT22;56478;50.982;7.032;2023-06-10T01:05:52;20.42;64.23
68177;DHT22;56478;50.982;7.032;2023-06-10T01:08:33;20.49;62.37
68177;DHT22;56478;50.982;7.032;2023-06-10T01:11:04;20.49;63.26
68177;DHT22;56478;50.982;7.032;2023-06-10T01:13:35;20.42;64.03
68177;DHT22;56478;50.982;7.032;2023-06-10T01:16:01;20.37;64.23
68177;DHT22;56478;50.982;7.032;2023-06-10T01:18:32;20.31;64.36
68177;DHT22;56478;50.982;7.032;2023-06-10T01:20:58;20.28;64.59
68177;DHT22;56478;50.982;7.032;2023-06-10T01:23:24;20.22;65.28
68177;DHT22;56478;50.982;7.032;2023-06-10T01:25:55;20.14;65.85
68177;DHT22;56478;50.982;7.032;2023-06-10T01:33:46;20.01;66.15
68177;DHT22;56478;50.982;7.032;2023-06-10T01:36:13;20.00;65.79
68177;DHT22;56478;50.982;7.032;2023-06-10T01:38:43;19.97;65.71
68177;DHT22;56478;50.982;7.032;2023-06-10T01:41:10;19.94;66.30
68177;DHT22;56478;50.982;7.032;2023-06-10T01:43:38;19.89;66.26
68177;DHT22;56478;50.982;7.032;2023-06-10T01:46:04;19.86;66.67
68177;DHT22;56478;50.982;7.032;2023-06-10T01:48:29;19.82;66.51
68177;DHT22;56478;50.982;7.032;2023-06-10T01:50:55;19.76;66.93
68177;DHT22;56478;50.982;7.032;2023-06-10T01:53:22;19.75;67.76
68177;DHT22;56478;50.982;7.032;2023-06-10T01:55:48;19.66;67.14
68177;DHT22;56478;50.982;7.032;2023-06-10T01:58:13;19.62;68.03
68177;DHT22;56478;50.982;7.032;2023-06-10T02:00:39;19.58;67.93
68177;DHT22;56478;50.982;7.032;2023-06-10T02:03:04;19.51;67.97
68177;DHT22;56478;50.982;7.032;2023-06-10T02:05:30;19.48;68.81
68177;DHT22;56478;50.982;7.032;2023-06-10T02:07:56;19.44;68.55
68177;DHT22;56478;50.982;7.032;2023-06-10T02:10:21;19.42;68.39
68177;DHT22;56478;50.982;7.032;2023-06-10T02:12:47;19.36;69.41
68177;DHT22;56478;50.982;7.032;2023-06-10T02:15:12;19.32;69.17
68177;DHT22;56478;50.982;7.032;2023-06-10T02:17:38;19.27;69.82
68177;DHT22;56478;50.982;7.032;2023-06-10T02:20:05;19.28;69.68
68177;DHT22;56478;50.982;7.032;2023-06-10T02:22:32;19.24;69.99
68177;DHT22;56478;50.982;7.032;2023-06-10T02:24:58;19.18;70.01
68177;DHT22;56478;50.982;7.032;2023-06-10T02:27:24;19.14;70.09
68177;DHT22;56478;50.982;7.032;2023-06-10T02:29:50;19.10;70.46
68177;DHT22;56478;50.982;7.032;2023-06-10T02:32:16;19.04;70.41
68177;DHT22;56478;50.982;7.032;2023-06-10T02:34:42;19.00;70.40
68177;DHT22;56478;50.982;7.032;2023-06-10T02:37:08;18.99;70.94
68177;DHT22;56478;50.982;7.032;2023-06-10T02:39:34;18.97;71.24
68177;DHT22;56478;50.982;7.032;2023-06-10T02:41:59;18.93;70.90
68177;DHT22;56478;50.982;7.032;2023-06-10T02:44:25;18.92;71.12
68177;DHT22;56478;50.982;7.032;2023-06-10T02:46:51;18.88;70.91
68177;DHT22;56478;50.982;7.032;2023-06-10T02:49:17;18.82;71.06
68177;DHT22;56478;50.982;7.032;2023-06-10T02:51:42;18.75;71.60
68177;DHT22;56478;50.982;7.032;2023-06-10T02:54:08;18.66;71.70
68177;DHT22;56478;50.982;7.032;2023-06-10T02:56:33;18.65;72.18
68177;DHT22;56478;50.982;7.032;2023-06-10T02:58:59;18.58;72.14
68177;DHT22;56478;50.982;7.032;2023-06-10T03:01:25;18.54;72.37
68177;DHT22;56478;50.982;7.032;2023-06-10T03:03:51;18.55;72.51
68177;DHT22;56478;50.982;7.032;2023-06-10T03:06:17;18.55;72.74
68177;DHT22;56478;50.982;7.032;2023-06-10T03:08:43;18.49;72.40
68177;DHT22;56478;50.982;7.032;2023-06-10T03:11:11;18.45;72.86
68177;DHT22;56478;50.982;7.032;2023-06-10T03:13:38;18.40;73.21
68177;DHT22;56478;50.982;7.032;2023-06-10T03:16:05;18.41;73.08
68177;DHT22;56478;50.982;7.032;2023-06-10T03:18:30;18.33;73.49
68177;DHT22;56478;50.982;7.032;2023-06-10T03:20:56;18.26;73.72
68177;DHT22;56478;50.982;7.032;2023-06-10T03:23:22;18.23;73.67
68177;DHT22;56478;50.982;7.032;2023-06-10T03:25:48;18.26;73.41
68177;DHT22;56478;50.982;7.032;2023-06-10T03:28:13;18.27;73.69
68177;DHT22;56478;50.982;7.032;2023-06-10T03:30:39;18.17;74.04
68177;DHT22;56478;50.982;7.032;2023-06-10T03:33:05;18.17;73.99
68177;DHT22;56478;50.982;7.032;2023-06-10T03:35:30;18.20;74.42
68177;DHT22;56478;50.982;7.032;2023-06-10T03:37:58;18.23;74.31
68177;DHT22;56478;50.982;7.032;2023-06-10T03:40:24;18.26;74.45
68177;DHT22;56478;50.982;7.032;2023-06-10T03:42:49;18.27;73.91
68177;DHT22;56478;50.982;7.032;2023-06-10T03:45:15;18.27;73.98
68177;DHT22;56478;50.982;7.032;2023-06-10T03:47:41;18.31;74.59
68177;DHT22;56478;50.982;7.032;2023-06-10T03:50:07;18.31;74.59
68177;DHT22;56478;50.982;7.032;2023-06-10T03:52:35;18.35;74.48
68177;DHT22;56478;50.982;7.032;2023-06-10T03:55:01;18.38;73.67
68177;DHT22;56478;50.982;7.032;2023-06-10T03:57:26;18.35;74.25
68177;DHT22;56478;50.982;7.032;2023-06-10T03:59:52;18.28;74.29
68177;DHT22;56478;50.982;7.032;2023-06-10T04:02:17;18.28;74.31
68177;DHT22;56478;50.982;7.032;2023-06-10T04:04:43;18.31;74.36
68177;DHT22;56478;50.982;7.032;2023-06-10T04:07:08;18.30;74.45
68177;DHT22;56478;50.982;7.032;2023-06-10T04:09:34;18.31;74.81
68177;DHT22;56478;50.982;7.032;2023-06-10T04:12:01;18.27;75.17
68177;DHT22;56478;50.982;7.032;2023-06-10T04:14:27;18.33;75.32
68177;DHT22;56478;50.982;7.032;2023-06-10T04:16:53;18.33;75.43
68177;DHT22;56478;50.982;7.032;2023-06-10T04:19:18;18.38;75.22
68177;DHT22;56478;50.982;7.032;2023-06-10T04:21:44;18.44;75.62
68177;DHT22;56478;50.982;7.032;2023-06-10T04:24:09;18.49;75.75
68177;DHT22;56478;50.982;7.032;2023-06-10T04:26:35;18.54;75.87
68177;DHT22;56478;50.982;7.032;2023-06-10T04:29:01;18.55;75.40
68177;DHT22;56478;50.982;7.032;2023-06-10T04:31:26;18.55;75.06
68177;DHT22;56478;50.982;7.032;2023-06-10T04:33:53;18.61;75.36
68177;DHT22;56478;50.982;7.032;2023-06-10T04:36:19;18.65;75.43
68177;DHT22;56478;50.982;7.032;2023-06-10T04:38:44;18.66;75.58
68177;DHT22;56478;50.982;7.032;2023-06-10T04:41:10;18.73;75.49
68177;DHT22;56478;50.982;7.032;2023-06-10T04:43:36;18.77;75.44
68177;DHT22;56478;50.982;7.032;2023-06-10T04:46:02;18.82;75.38
68177;DHT22;56478;50.982;7.032;2023-06-10T04:48:27;18.88;75.60
68177;DHT22;56478;50.982;7.032;2023-06-10T04:50:53;18.93;75.87
68177;DHT22;56478;50.982;7.032;2023-06-10T04:53:19;18.93;75.47
68177;DHT22;56478;50.982;7.032;2023-06-10T04:55:46;19.00;75.41
68177;DHT22;56478;50.982;7.032;2023-06-10T04:58:12;19.03;75.83
68177;DHT22;56478;50.982;7.032;2023-06-10T05:00:37;19.07;75.46
68177;DHT22;56478;50.982;7.032;2023-06-10T05:03:03;19.17;75.77
68177;DHT22;56478;50.982;7.032;2023-06-10T05:05:28;19.21;75.63
68177;DHT22;56478;50.982;7.032;2023-06-10T05:07:54;19.30;75.41
68177;DHT22;56478;50.982;7.032;2023-06-10T05:10:19;19.35;75.48
68177;DHT22;56478;50.982;7.032;2023-06-10T05:12:45;19.44;75.80
68177;DHT22;56478;50.982;7.032;2023-06-10T05:15:11;19.54;75.42
68177;DHT22;56478;50.982;7.032;2023-06-10T05:17:36;19.59;75.29
68177;DHT22;56478;50.982;7.032;2023-06-10T05:20:03;19.69;75.27
68177;DHT22;56478;50.982;7.032;2023-06-10T05:22:28;19.75;75.34
68177;DHT22;56478;50.982;7.032;2023-06-10T05:24:54;19.82;75.21
68177;DHT22;56478;50.982;7.032;2023-06-10T05:27:20;19.87;75.12
68177;DHT22;56478;50.982;7.032;2023-06-10T05:29:46;19.96;75.01
68177;DHT22;56478;50.982;7.032;2023-06-10T05:32:12;20.04;75.01
68177;DHT22;56478;50.982;7.032;2023-06-10T05:34:37;20.11;74.71
68177;DHT22;56478;50.982;7.032;2023-06-10T05:37:03;20.18;74.20
68177;DHT22;56478;50.982;7.032;2023-06-10T05:39:29;20.27;73.57
68177;DHT22;56478;50.982;7.032;2023-06-10T05:41:55;20.32;73.71
68177;DHT22;56478;50.982;7.032;2023-06-10T05:44:20;20.46;73.86
68177;DHT22;56478;50.982;7.032;2023-06-10T05:46:46;20.52;73.50
68177;DHT22;56478;50.982;7.032;2023-06-10T05:49:11;20.55;72.07
68177;DHT22;56478;50.982;7.032;2023-06-10T05:51:37;20.69;72.08
68177;DHT22;56478;50.982;7.032;2023-06-10T05:54:03;20.75;72.26
68177;DHT22;56478;50.982;7.032;2023-06-10T05:56:29;20.80;72.44
68177;DHT22;56478;50.982;7.032;2023-06-10T05:58:55;20.86;72.55
68177;DHT22;56478;50.982;7.032;2023-06-10T06:01:21;20.96;71.89
68177;DHT22;56478;50.982;7.032;2023-06-10T06:03:47;20.98;71.76
68177;DHT22;56478;50.982;7.032;2023-06-10T06:06:12;21.20;68.00
68177;DHT22;56478;50.982;7.032;2023-06-10T06:08:38;21.32;68.03
68177;DHT22;56478;50.982;7.032;2023-06-10T06:11:03;21.52;66.06
68177;DHT22;56478;50.982;7.032;2023-06-10T06:13:29;21.59;62.54
68177;DHT22;56478;50.982;7.032;2023-06-10T06:15:55;21.69;63.62
68177;DHT22;56478;50.982;7.032;2023-06-10T06:18:20;21.80;64.12
68177;DHT22;56478;50.982;7.032;2023-06-10T06:20:46;21.83;67.00
68177;DHT22;56478;50.982;7.032;2023-06-10T06:23:11;21.96;65.50
68177;DHT22;56478;50.982;7.032;2023-06-10T06:25:37;22.03;60.27
68177;DHT22;56478;50.982;7.032;2023-06-10T06:28:07;22.21;62.45
68177;DHT22;56478;50.982;7.032;2023-06-10T06:30:34;22.28;60.49
68177;DHT22;56478;50.982;7.032;2023-06-10T06:33:01;22.55;58.11
68177;DHT22;56478;50.982;7.032;2023-06-10T06:35:27;22.74;58.93
68177;DHT22;56478;50.982;7.032;2023-06-10T06:37:53;22.96;58.70
68177;DHT22;56478;50.982;7.032;2023-06-10T06:40:20;23.37;55.50
68177;DHT22;56478;50.982;7.032;2023-06-10T06:42:45;23.34;54.40
68177;DHT22;56478;50.982;7.032;2023-06-10T06:45:11;23.18;59.05
68177;DHT22;56478;50.982;7.032;2023-06-10T06:47:37;23.52;54.29
68177;DHT22;56478;50.982;7.032;2023-06-10T06:50:03;23.74;53.21
68177;DHT22;56478;50.982;7.032;2023-06-10T06:52:28;24.01;52.68
68177;DHT22;56478;50.982;7.032;2023-06-10T06:54:54;24.33;52.40
68177;DHT22;56478;50.982;7.032;2023-06-10T06:57:19;27.01;46.41
68177;DHT22;56478;50.982;7.032;2023-06-10T06:59:45;29.61;43.17
68177;DHT22;56478;50.982;7.032;2023-06-10T07:02:11;31.91;39.47
68177;DHT22;56478;50.982;7.032;2023-06-10T07:04:36;33.37;38.20
68177;DHT22;56478;50.982;7.032;2023-06-10T07:07:02;34.08;33.73
68177;DHT22;56478;50.982;7.032;2023-06-10T07:09:28;35.16;32.64
68177;DHT22;56478;50.982;7.032;2023-06-10T07:11:53;35.43;33.94
68177;DHT22;56478;50.982;7.032;2023-06-10T07:14:19;37.04;28.39
68177;DHT22;56478;50.982;7.032;2023-06-10T07:16:45;36.76;29.52
68177;DHT22;56478;50.982;7.032;2023-06-10T07:19:11;36.46;31.57
68177;DHT22;56478;50.982;7.032;2023-06-10T07:21:37;36.52;29.28
68177;DHT22;56478;50.982;7.032;2023-06-10T07:24:03;37.25;28.45
68177;DHT22;56478;50.982;7.032;2023-06-10T07:26:29;37.98;27.05
68177;DHT22;56478;50.982;7.032;2023-06-10T07:28:54;37.46;29.23
68177;DHT22;56478;50.982;7.032;2023-06-10T07:31:20;37.33;28.48
68177;DHT22;56478;50.982;7.032;2023-06-10T07:33:46;37.58;29.99
68177;DHT22;56478;50.982;7.032;2023-06-10T07:36:12;37.78;29.35
68177;DHT22;56478;50.982;7.032;2023-06-10T07:38:38;38.32;28.33
68177;DHT22;56478;50.982;7.032;2023-06-10T07:41:03;38.53;29.84
68177;DHT22;56478;50.982;7.032;2023-06-10T07:43:29;38.29;28.03
68177;DHT22;56478;50.982;7.032;2023-06-10T07:45:55;39.03;27.85
68177;DHT22;56478;50.982;7.032;2023-06-10T07:48:21;38.46;27.79
68177;DHT22;56478;50.982;7.032;2023-06-10T07:50:46;39.10;27.55
68177;DHT22;56478;50.982;7.032;2023-06-10T07:53:12;39.07;28.59
68177;DHT22;56478;50.982;7.032;2023-06-10T07:55:37;39.17;25.90
68177;DHT22;56478;50.982;7.032;2023-06-10T07:58:03;39.97;26.88
68177;DHT22;56478;50.982;7.032;2023-06-10T08:00:29;39.42;26.08
68177;DHT22;56478;50.982;7.032;2023-06-10T08:02:54;39.35;27.11
68177;DHT22;56478;50.982;7.032;2023-06-10T08:05:21;40.04;28.03
68177;DHT22;56478;50.982;7.032;2023-06-10T08:07:47;39.93;25.97
68177;DHT22;56478;50.982;7.032;2023-06-10T08:10:12;40.17;24.84
68177;DHT22;56478;50.982;7.032;2023-06-10T08:12:38;40.80;25.43
68177;DHT22;56478;50.982;7.032;2023-06-10T08:15:04;40.41;26.21
68177;DHT22;56478;50.982;7.032;2023-06-10T08:17:30;40.69;24.92
68177;DHT22;56478;50.982;7.032;2023-06-10T08:19:56;41.32;24.01
68177;DHT22;56478;50.982;7.032;2023-06-10T08:22:22;40.69;27.25
68177;DHT22;56478;50.982;7.032;2023-06-10T08:24:47;40.62;24.44
68177;DHT22;56478;50.982;7.032;2023-06-10T08:27:13;41.38;25.13
68177;DHT22;56478;50.982;7.032;2023-06-10T08:29:39;40.86;27.23
68177;DHT22;56478;50.982;7.032;2023-06-10T08:32:05;40.63;26.63
68177;DHT22;56478;50.982;7.032;2023-06-10T08:34:34;40.24;26.41
68177;DHT22;56478;50.982;7.032;2023-06-10T08:37:03;41.69;24.98
68177;DHT22;56478;50.982;7.032;2023-06-10T08:39:29;41.03;25.52
68177;DHT22;56478;50.982;7.032;2023-06-10T08:44:46;42.21;24.60
68177;DHT22;56478;50.982;7.032;2023-06-10T08:49:42;41.84;24.12
68177;DHT22;56478;50.982;7.032;2023-06-10T08:52:14;42.42;23.39
68177;DHT22;56478;50.982;7.032;2023-06-10T08:54:43;42.21;23.23
68177;DHT22;56478;50.982;7.032;2023-06-10T08:57:09;42.46;24.08
68177;DHT22;56478;50.982;7.032;2023-06-10T08:59:35;43.32;22.05
68177;DHT22;56478;50.982;7.032;2023-06-10T09:02:02;42.77;22.34
68177;DHT22;56478;50.982;7.032;2023-06-10T09:04:30;43.67;21.10
68177;DHT22;56478;50.982;7.032;2023-06-10T09:06:55;42.60;22.32
68177;DHT22;56478;50.982;7.032;2023-06-10T09:09:22;42.96;22.39
68177;DHT22;56478;50.982;7.032;2023-06-10T09:11:48;42.62;22.60
68177;DHT22;56478;50.982;7.032;2023-06-10T09:14:14;43.66;21.32
68177;DHT22;56478;50.982;7.032;2023-06-10T09:16:42;43.13;23.34
68177;DHT22;56478;50.982;7.032;2023-06-10T09:19:08;43.14;22.60
68177;DHT22;56478;50.982;7.032;2023-06-10T09:21:34;43.53;22.54
68177;DHT22;56478;50.982;7.032;2023-06-10T09:24:04;44.13;21.30
68177;DHT22;56478;50.982;7.032;2023-06-10T09:26:30;43.73;22.70
68177;DHT22;56478;50.982;7.032;2023-06-10T09:29:06;43.49;22.90
68177;DHT22;56478;50.982;7.032;2023-06-10T09:31:38;43.87;20.67
68177;DHT22;56478;50.982;7.032;2023-06-10T09:34:14;45.39;19.29
68177;DHT22;56478;50.982;7.032;2023-06-10T09:36:42;44.94;21.68
68177;DHT22;56478;50.982;7.032;2023-06-10T09:39:18;43.86;21.84
68177;DHT22;56478;50.982;7.032;2023-06-10T09:41:45;43.96;22.36
68177;DHT22;56478;50.982;7.032;2023-06-10T09:44:15;43.26;22.56
68177;DHT22;56478;50.982;7.032;2023-06-10T09:46:41;43.63;20.91
68177;DHT22;56478;50.982;7.032;2023-06-10T09:49:06;44.07;20.42
68177;DHT22;56478;50.982;7.032;2023-06-10T09:51:32;43.91;21.32
68177;DHT22;56478;50.982;7.032;2023-06-10T09:53:59;43.52;21.47
68177;DHT22;56478;50.982;7.032;2023-06-10T09:56:36;42.35;22.83
68177;DHT22;56478;50.982;7.032;2023-06-10T09:59:03;43.17;24.26
68177;DHT22;56478;50.982;7.032;2023-06-10T10:01:30;43.21;21.26
68177;DHT22;56478;50.982;7.032;2023-06-10T10:03:56;42.46;22.44
68177;DHT22;56478;50.982;7.032;2023-06-10T10:06:22;43.82;20.91
68177;DHT22;56478;50.982;7.032;2023-06-10T10:08:49;42.59;22.51
68177;DHT22;56478;50.982;7.032;2023-06-10T10:11:20;43.73;21.36
68177;DHT22;56478;50.982;7.032;2023-06-10T10:13:49;43.19;21.20
68177;DHT22;56478;50.982;7.032;2023-06-10T10:16:29;43.29;21.22
68177;DHT22;56478;50.982;7.032;2023-06-10T10:18:59;44.65;20.06
68177;DHT22;56478;50.982;7.032;2023-06-10T10:21:31;43.03;21.20
68177;DHT22;56478;50.982;7.032;2023-06-10T10:24:09;41.86;21.72
68177;DHT22;56478;50.982;7.032;2023-06-10T10:26:38;42.52;22.44
68177;DHT22;56478;50.982;7.032;2023-06-10T10:31:36;42.14;22.59
68177;DHT22;56478;50.982;7.032;2023-06-10T10:34:06;42.24;22.89
68177;DHT22;56478;50.982;7.032;2023-06-10T10:36:32;41.80;23.84
68177;DHT22;56478;50.982;7.032;2023-06-10T10:38:58;42.36;24.55
68177;DHT22;56478;50.982;7.032;2023-06-10T10:41:28;42.42;22.81
68177;DHT22;56478;50.982;7.032;2023-06-10T10:43:55;43.14;22.93
68177;DHT22;56478;50.982;7.032;2023-06-10T10:46:21;42.59;21.27
68177;DHT22;56478;50.982;7.032;2023-06-10T10:48:52;43.93;18.15
68177;DHT22;56478;50.982;7.032;2023-06-10T10:51:18;42.39;21.83
68177;DHT22;56478;50.982;7.032;2023-06-10T10:53:44;40.25;21.51
68177;DHT22;56478;50.982;7.032;2023-06-10T10:56:29;41.69;20.74
68177;DHT22;56478;50.982;7.032;2023-06-10T10:59:05;40.56;20.72
68177;DHT22;56478;50.982;7.032;2023-06-10T11:01:43;39.59;24.56
68177;DHT22;56478;50.982;7.032;2023-06-10T11:04:12;38.66;23.55
68177;DHT22;56478;50.982;7.032;2023-06-10T11:06:37;37.97;26.37
68177;DHT22;56478;50.982;7.032;2023-06-10T11:09:39;37.05;26.91
68177;DHT22;56478;50.982;7.032;2023-06-10T11:12:23;37.38;24.21
68177;DHT22;56478;50.982;7.032;2023-06-10T11:14:54;37.18;24.36
68177;DHT22;56478;50.982;7.032;2023-06-10T11:17:20;36.47;26.14
68177;DHT22;56478;50.982;7.032;2023-06-10T11:19:46;35.69;25.62
68177;DHT22;56478;50.982;7.032;2023-06-10T11:22:17;34.57;26.98
68177;DHT22;56478;50.982;7.032;2023-06-10T11:24:49;33.95;25.02
68177;DHT22;56478;50.982;7.032;2023-06-10T11:27:16;32.85;26.44
68177;DHT22;56478;50.982;7.032;2023-06-10T11:32:30;32.41;29.14
68177;DHT22;56478;50.982;7.032;2023-06-10T11:34:57;32.26;33.97
68177;DHT22;56478;50.982;7.032;2023-06-10T11:37:23;32.25;32.57
68177;DHT22;56478;50.982;7.032;2023-06-10T11:39:53;32.26;32.22
68177;DHT22;56478;50.982;7.032;2023-06-10T11:42:19;32.30;34.36
68177;DHT22;56478;50.982;7.032;2023-06-10T11:44:53;32.05;31.83
68177;DHT22;56478;50.982;7.032;2023-06-10T11:47:20;31.94;35.22
68177;DHT22;56478;50.982;7.032;2023-06-10T11:49:56;31.84;35.96
68177;DHT22;56478;50.982;7.032;2023-06-10T11:52:29;31.70;38.50
68177;DHT22;56478;50.982;7.032;2023-06-10T11:54:57;31.76;38.56
68177;DHT22;56478;50.982;7.032;2023-06-10T11:57:22;31.80;40.41
68177;DHT22;56478;50.982;7.032;2023-06-10T11:59:48;31.69;35.90
68177;DHT22;56478;50.982;7.032;2023-06-10T12:02:18;31.71;38.51
68177;DHT22;56478;50.982;7.032;2023-06-10T12:04:45;31.80;38.98
68177;DHT22;56478;50.982;7.032;2023-06-10T12:07:17;31.91;39.41
68177;DHT22;56478;50.982;7.032;2023-06-10T12:09:44;31.82;38.22
68177;DHT22;56478;50.982;7.032;2023-06-10T12:12:10;32.09;38.91
68177;DHT22;56478;50.982;7.032;2023-06-10T12:14:56;32.63;39.17
68177;DHT22;56478;50.982;7.032;2023-06-10T12:17:23;32.81;36.95
68177;DHT22;56478;50.982;7.032;2023-06-10T12:20:04;33.15;37.22
68177;DHT22;56478;50.982;7.032;2023-06-10T12:22:43;33.45;31.96
68177;DHT22;56478;50.982;7.032;2023-06-10T12:25:10;33.86;29.47
68177;DHT22;56478;50.982;7.032;2023-06-10T12:27:38;33.69;29.09
68177;DHT22;56478;50.982;7.032;2023-06-10T12:30:05;33.81;29.36
68177;DHT22;56478;50.982;7.032;2023-06-10T12:32:45;33.84;29.78
68177;DHT22;56478;50.982;7.032;2023-06-10T12:35:13;33.93;27.99
68177;DHT22;56478;50.982;7.032;2023-06-10T12:37:41;33.91;26.39
68177;DHT22;56478;50.982;7.032;2023-06-10T12:40:07;33.90;26.66
68177;DHT22;56478;50.982;7.032;2023-06-10T12:42:36;34.04;26.76
68177;DHT22;56478;50.982;7.032;2023-06-10T12:45:04;34.09;28.11
68177;DHT22;56478;50.982;7.032;2023-06-10T12:47:33;34.29;27.90
68177;DHT22;56478;50.982;7.032;2023-06-10T12:50:04;34.39;25.82
68177;DHT22;56478;50.982;7.032;2023-06-10T12:52:30;34.40;25.25
68177;DHT22;56478;50.982;7.032;2023-06-10T12:54:58;33.95;25.51
68177;DHT22;56478;50.982;7.032;2023-06-10T12:57:24;34.12;27.47
68177;DHT22;56478;50.982;7.032;2023-06-10T12:59:50;33.97;24.82
68177;DHT22;56478;50.982;7.032;2023-06-10T13:02:20;34.11;25.80
68177;DHT22;56478;50.982;7.032;2023-06-10T13:04:49;34.01;25.57
68177;DHT22;56478;50.982;7.032;2023-06-10T13:07:15;33.94;26.31
68177;DHT22;56478;50.982;7.032;2023-06-10T13:09:40;33.21;28.42
68177;DHT22;56478;50.982;7.032;2023-06-10T13:12:06;33.02;26.65
68177;DHT22;56478;50.982;7.032;2023-06-10T13:14:33;32.56;31.12
68177;DHT22;56478;50.982;7.032;2023-06-10T13:16:58;32.68;30.29
68177;DHT22;56478;50.982;7.032;2023-06-10T13:19:24;32.44;30.96
68177;DHT22;56478;50.982;7.032;2023-06-10T13:21:50;32.80;29.02
68177;DHT22;56478;50.982;7.032;2023-06-10T13:24:16;32.77;26.54
68177;DHT22;56478;50.982;7.032;2023-06-10T13:26:42;32.90;26.82
68177;DHT22;56478;50.982;7.032;2023-06-10T13:29:08;32.47;26.61
68177;DHT22;56478;50.982;7.032;2023-06-10T13:31:39;32.60;26.76
68177;DHT22;56478;50.982;7.032;2023-06-10T13:34:05;32.85;27.56
68177;DHT22;56478;50.982;7.032;2023-06-10T13:36:31;33.07;24.82
68177;DHT22;56478;50.982;7.032;2023-06-10T13:38:57;33.16;25.05
68177;DHT22;56478;50.982;7.032;2023-06-10T13:41:22;33.27;25.46
68177;DHT22;56478;50.982;7.032;2023-06-10T13:43:48;33.50;25.51
68177;DHT22;56478;50.982;7.032;2023-06-10T13:46:14;33.64;26.57
68177;DHT22;56478;50.982;7.032;2023-06-10T13:48:39;33.64;25.41
68177;DHT22;56478;50.982;7.032;2023-06-10T13:51:05;33.46;27.02
68177;DHT22;56478;50.982;7.032;2023-06-10T13:53:32;33.21;25.53
68177;DHT22;56478;50.982;7.032;2023-06-10T13:55:57;32.95;25.76
68177;DHT22;56478;50.982;7.032;2023-06-10T13:58:23;32.81;26.17
68177;DHT22;56478;50.982;7.032;2023-06-10T14:00:49;32.91;26.86
68177;DHT22;56478;50.982;7.032;2023-06-10T14:03:14;33.15;26.52
68177;DHT22;56478;50.982;7.032;2023-06-10T14:05:40;33.43;26.85
68177;DHT22;56478;50.982;7.032;2023-06-10T14:08:06;33.61;25.85
68177;DHT22;56478;50.982;7.032;2023-06-10T14:10:31;33.78;26.47
68177;DHT22;56478;50.982;7.032;2023-06-10T14:12:57;33.94;27.85
68177;DHT22;56478;50.982;7.032;2023-06-10T14:15:22;33.93;25.82
68177;DHT22;56478;50.982;7.032;2023-06-10T14:17:48;33.80;26.62
68177;DHT22;56478;50.982;7.032;2023-06-10T14:20:13;33.59;26.95
68177;DHT22;56478;50.982;7.032;2023-06-10T14:22:39;33.35;27.79
68177;DHT22;56478;50.982;7.032;2023-06-10T14:25:05;33.11;27.32
68177;DHT22;56478;50.982;7.032;2023-06-10T14:27:31;32.88;28.42
68177;DHT22;56478;50.982;7.032;2023-06-10T14:29:57;32.80;27.41
68177;DHT22;56478;50.982;7.032;2023-06-10T14:32:22;32.52;32.61
68177;DHT22;56478;50.982;7.032;2023-06-10T14:34:48;32.39;31.99
68177;DHT22;56478;50.982;7.032;2023-06-10T14:37:13;32.53;28.06
68177;DHT22;56478;50.982;7.032;2023-06-10T14:39:39;32.36;32.77
68177;DHT22;56478;50.982;7.032;2023-06-10T14:42:05;32.14;33.43
68177;DHT22;56478;50.982;7.032;2023-06-10T14:44:31;31.97;29.78
68177;DHT22;56478;50.982;7.032;2023-06-10T14:46:57;31.73;31.65
68177;DHT22;56478;50.982;7.032;2023-06-10T14:49:22;31.64;31.68
68177;DHT22;56478;50.982;7.032;2023-06-10T14:51:48;31.66;31.05
68177;DHT22;56478;50.982;7.032;2023-06-10T14:54:15;31.61;31.44
68177;DHT22;56478;50.982;7.032;2023-06-10T14:56:41;31.63;31.89
68177;DHT22;56478;50.982;7.032;2023-06-10T14:59:07;31.42;31.82
68177;DHT22;56478;50.982;7.032;2023-06-10T15:01:33;31.59;31.15
68177;DHT22;56478;50.982;7.032;2023-06-10T15:03:58;31.69;32.27
68177;DHT22;56478;50.982;7.032;2023-06-10T15:06:24;31.57;31.80
68177;DHT22;56478;50.982;7.032;2023-06-10T15:08:50;31.56;34.00
68177;DHT22;56478;50.982;7.032;2023-06-10T15:11:15;31.59;32.38
68177;DHT22;56478;50.982;7.032;2023-06-10T15:13:41;31.69;34.03
68177;DHT22;56478;50.982;7.032;2023-06-10T15:16:07;31.73;33.70
68177;DHT22;56478;50.982;7.032;2023-06-10T15:18:33;31.89;31.62
68177;DHT22;56478;50.982;7.032;2023-06-10T15:20:58;31.64;34.20
68177;DHT22;56478;50.982;7.032;2023-06-10T15:23:24;31.81;31.05
68177;DHT22;56478;50.982;7.032;2023-06-10T15:25:50;31.88;30.36
68177;DHT22;56478;50.982;7.032;2023-06-10T15:28:16;31.89;29.13
68177;DHT22;56478;50.982;7.032;2023-06-10T15:30:41;31.82;32.22
68177;DHT22;56478;50.982;7.032;2023-06-10T15:33:07;31.69;27.31
68177;DHT22;56478;50.982;7.032;2023-06-10T15:35:33;31.61;26.96
68177;DHT22;56478;50.982;7.032;2023-06-10T15:37:59;31.50;27.08
68177;DHT22;56478;50.982;7.032;2023-06-10T15:40:25;31.50;30.87
68177;DHT22;56478;50.982;7.032;2023-06-10T15:42:51;31.53;28.12
68177;DHT22;56478;50.982;7.032;2023-06-10T15:45:17;31.42;27.98